sensor_id;sensor_type;location;lat;lon;timestamp;pressure;altitude;pressure_sealevel;temperature;humidity
20119;BME280;10220;42.716;23.306;2022-12-18T00:01:31;96005.03;;;6.17;100.00
20119;BME280;10220;42.716;23.306;2022-12-18T00:03:57;96005.47;;;6.05;100.00
20119;BME280;10220;42.716;23.306;2022-12-18T00:06:23;95954.06;;;5.72;100.00
20119;BME280;10220;42.716;23.306;2022-12-18T00:08:49;95995.81;;;5.99;100.00
20119;BME280;10220;42.716;23.306;2022-12-18T00:11:17;96014.59;;;5.99;100.00
20119;BME280;10220;42.716;23.306;2022-12-18T00:13:43;96021.53;;;5.99;100.00
20119;BME280;10220;42.716;23.306;2022-12-18T00:16:12;96033.44;;;6.00;100.00
20119;BME280;10220;42.716;23.306;2022-12-18T00:18:38;96025.03;;;5.98;100.00
20119;BME280;10220;42.716;23.306;2022-12-18T00:21:06;96027.09;;;5.94;100.00
20119;BME280;10220;42.716;23.306;2022-12-18T00:23:33;96020.81;;;5.89;100.00
20119;BME280;10220;42.716;23.306;2022-12-18T00:26:00;96025.97;;;5.89;100.00
20119;BME280;10220;42.716;23.306;2022-12-18T00:28:25;96038.19;;;5.87;100.00
20119;BME280;10220;42.716;23.306;2022-12-18T00:31:02;96024.38;;;5.71;100.00
20119;BME280;10220;42.716;23.306;2022-12-18T00:33:28;95985.00;;;5.37;100.00
20119;BME280;10220;42.716;23.306;2022-12-18T00:35:53;96042.22;;;5.72;100.00
20119;BME280;10220;42.716;23.306;2022-12-18T00:38:19;96045.34;;;5.58;100.00
20119;BME280;10220;42.716;23.306;2022-12-18T00:40:44;96037.31;;;5.53;100.00
20119;BME280;10220;42.716;23.306;2022-12-18T00:43:09;96040.50;;;5.55;100.00
20119;BME280;10220;42.716;23.306;2022-12-18T00:45:35;96048.53;;;5.52;100.00
20119;BME280;10220;42.716;23.306;2022-12-18T00:48:00;96039.63;;;5.39;100.00
20119;BME280;10220;42.716;23.306;2022-12-18T00:50:26;96045.91;;;5.44;100.00
20119;BME280;10220;42.716;23.306;2022-12-18T00:52:52;96001.78;;;5.06;100.00
20119;BME280;10220;42.716;23.306;2022-12-18T00:55:17;96055.34;;;5.44;100.00
20119;BME280;10220;42.716;23.306;2022-12-18T00:57:43;96069.03;;;5.44;100.00
20119;BME280;10220;42.716;23.306;2022-12-18T01:00:12;96056.22;;;5.52;100.00
20119;BME280;10220;42.716;23.306;2022-12-18T01:02:38;96076.47;;;5.55;100.00
20119;BME280;10220;42.716;23.306;2022-12-18T01:05:04;96069.19;;;5.43;100.00
20119;BME280;10220;42.716;23.306;2022-12-18T01:07:30;96058.50;;;5.55;100.00
20119;BME280;10220;42.716;23.306;2022-12-18T01:09:55;96056.66;;;5.48;100.00
20119;BME280;10220;42.716;23.306;2022-12-18T01:12:21;96074.06;;;5.54;100.00
20119;BME280;10220;42.716;23.306;2022-12-18T01:14:46;96062.38;;;5.34;100.00
20119;BME280;10220;42.716;23.306;2022-12-18T01:17:11;96082.53;;;5.29;100.00
20119;BME280;10220;42.716;23.306;2022-12-18T01:19:37;96093.19;;;5.34;100.00
20119;BME280;10220;42.716;23.306;2022-12-18T01:22:02;96088.47;;;5.47;100.00
20119;BME280;10220;42.716;23.306;2022-12-18T01:24:28;96091.63;;;5.41;100.00
20119;BME280;10220;42.716;23.306;2022-12-18T01:26:53;96056.06;;;5.11;100.00
20119;BME280;10220;42.716;23.306;2022-12-18T01:29:19;96084.06;;;5.39;100.00
20119;BME280;10220;42.716;23.306;2022-12-18T01:31:44;96068.16;;;5.19;100.00
20119;BME280;10220;42.716;23.306;2022-12-18T01:34:10;96097.72;;;5.22;100.00
20119;BME280;10220;42.716;23.306;2022-12-18T01:36:37;96083.44;;;5.20;100.00
20119;BME280;10220;42.716;23.306;2022-12-18T01:39:10;96097.50;;;5.16;100.00
20119;BME280;10220;42.716;23.306;2022-12-18T01:41:36;96089.50;;;5.19;100.00
20119;BME280;10220;42.716;23.306;2022-12-18T01:47:15;96098.84;;;5.20;100.00
20119;BME280;10220;42.716;23.306;2022-12-18T01:49:43;96095.63;;;5.18;100.00
20119;BME280;10220;42.716;23.306;2022-12-18T01:52:09;96094.56;;;5.11;100.00
20119;BME280;10220;42.716;23.306;2022-12-18T01:54:34;96109.19;;;5.11;100.00
20119;BME280;10220;42.716;23.306;2022-12-18T01:57:00;96088.16;;;4.80;100.00
20119;BME280;10220;42.716;23.306;2022-12-18T01:59:26;96109.75;;;5.05;100.00
20119;BME280;10220;42.716;23.306;2022-12-18T02:01:53;96099.41;;;4.97;100.00
20119;BME280;10220;42.716;23.306;2022-12-18T02:04:20;96082.63;;;4.85;100.00
20119;BME280;10220;42.716;23.306;2022-12-18T02:07:02;96091.94;;;4.86;100.00
20119;BME280;10220;42.716;23.306;2022-12-18T02:09:39;96118.78;;;4.91;100.00
20119;BME280;10220;42.716;23.306;2022-12-18T02:12:20;96120.09;;;4.95;100.00
20119;BME280;10220;42.716;23.306;2022-12-18T02:15:02;96119.31;;;4.95;100.00
20119;BME280;10220;42.716;23.306;2022-12-18T02:17:43;96085.97;;;4.85;100.00
20119;BME280;10220;42.716;23.306;2022-12-18T02:20:49;96121.94;;;5.03;100.00
20119;BME280;10220;42.716;23.306;2022-12-18T02:28:33;96134.78;;;5.03;100.00
20119;BME280;10220;42.716;23.306;2022-12-18T02:31:02;96132.13;;;4.95;100.00
20119;BME280;10220;42.716;23.306;2022-12-18T02:33:31;96145.69;;;4.87;100.00
20119;BME280;10220;42.716;23.306;2022-12-18T02:36:00;96131.16;;;4.78;100.00
20119;BME280;10220;42.716;23.306;2022-12-18T02:38:28;96129.75;;;4.84;100.00
20119;BME280;10220;42.716;23.306;2022-12-18T02:40:55;96072.97;;;4.52;100.00
20119;BME280;10220;42.716;23.306;2022-12-18T02:43:22;96093.66;;;4.68;100.00
20119;BME280;10220;42.716;23.306;2022-12-18T02:45:57;96138.53;;;4.81;100.00
20119;BME280;10220;42.716;23.306;2022-12-18T02:48:30;96146.69;;;4.77;100.00
20119;BME280;10220;42.716;23.306;2022-12-18T02:51:11;96137.34;;;4.59;100.00
20119;BME280;10220;42.716;23.306;2022-12-18T02:53:45;96145.13;;;4.66;100.00
20119;BME280;10220;42.716;23.306;2022-12-18T02:56:32;96098.38;;;4.46;100.00
20119;BME280;10220;42.716;23.306;2022-12-18T02:59:11;96155.16;;;4.60;100.00
20119;BME280;10220;42.716;23.306;2022-12-18T03:05:01;96139.41;;;4.46;100.00
20119;BME280;10220;42.716;23.306;2022-12-18T03:07:02;96132.91;;;4.51;100.00
20119;BME280;10220;42.716;23.306;2022-12-18T03:09:35;96107.00;;;4.27;100.00
20119;BME280;10220;42.716;23.306;2022-12-18T03:12:10;96132.22;;;4.49;100.00
20119;BME280;10220;42.716;23.306;2022-12-18T03:15:13;96147.84;;;4.56;100.00
20119;BME280;10220;42.716;23.306;2022-12-18T03:17:44;96164.22;;;4.55;100.00
20119;BME280;10220;42.716;23.306;2022-12-18T03:20:17;96116.03;;;4.22;100.00
20119;BME280;10220;42.716;23.306;2022-12-18T03:22:46;96162.94;;;4.68;100.00
20119;BME280;10220;42.716;23.306;2022-12-18T03:25:14;96167.91;;;4.69;100.00
20119;BME280;10220;42.716;23.306;2022-12-18T03:27:48;96167.53;;;4.64;100.00
20119;BME280;10220;42.716;23.306;2022-12-18T03:30:15;96174.13;;;4.67;100.00
20119;BME280;10220;42.716;23.306;2022-12-18T03:33:05;96168.72;;;4.70;100.00
20119;BME280;10220;42.716;23.306;2022-12-18T03:35:37;96135.38;;;4.43;100.00
20119;BME280;10220;42.716;23.306;2022-12-18T03:38:04;96166.09;;;4.53;100.00
20119;BME280;10220;42.716;23.306;2022-12-18T03:40:43;96181.44;;;4.62;100.00
20119;BME280;10220;42.716;23.306;2022-12-18T03:46:17;96192.56;;;4.53;100.00
20119;BME280;10220;42.716;23.306;2022-12-18T03:48:53;96196.97;;;4.61;100.00
20119;BME280;10220;42.716;23.306;2022-12-18T03:51:46;96215.16;;;4.40;100.00
20119;BME280;10220;42.716;23.306;2022-12-18T03:54:16;96205.31;;;4.36;100.00
20119;BME280;10220;42.716;23.306;2022-12-18T03:56:46;96211.13;;;4.38;100.00
20119;BME280;10220;42.716;23.306;2022-12-18T03:59:15;96198.06;;;4.22;100.00
20119;BME280;10220;42.716;23.306;2022-12-18T04:01:46;96216.25;;;4.28;100.00
20119;BME280;10220;42.716;23.306;2022-12-18T04:04:13;96220.19;;;4.23;100.00
20119;BME280;10220;42.716;23.306;2022-12-18T04:06:40;96204.28;;;4.19;100.00
20119;BME280;10220;42.716;23.306;2022-12-18T04:09:07;96219.34;;;4.32;100.00
20119;BME280;10220;42.716;23.306;2022-12-18T04:11:33;96220.28;;;4.31;100.00
20119;BME280;10220;42.716;23.306;2022-12-18T04:13:58;96218.81;;;4.38;100.00
20119;BME280;10220;42.716;23.306;2022-12-18T04:16:25;96224.44;;;4.41;100.00
20119;BME280;10220;42.716;23.306;2022-12-18T04:18:50;96216.63;;;4.43;100.00
20119;BME280;10220;42.716;23.306;2022-12-18T04:21:16;96235.53;;;4.32;100.00
20119;BME280;10220;42.716;23.306;2022-12-18T04:23:41;96259.19;;;4.26;100.00
20119;BME280;10220;42.716;23.306;2022-12-18T04:26:07;96227.38;;;4.19;100.00
20119;BME280;10220;42.716;23.306;2022-12-18T04:28:32;96192.44;;;4.00;100.00
20119;BME280;10220;42.716;23.306;2022-12-18T04:30:57;96251.63;;;4.15;100.00
20119;BME280;10220;42.716;23.306;2022-12-18T04:33:23;96212.69;;;3.93;100.00
20119;BME280;10220;42.716;23.306;2022-12-18T04:35:48;96252.84;;;4.21;100.00
20119;BME280;10220;42.716;23.306;2022-12-18T04:38:14;96211.50;;;3.69;100.00
20119;BME280;10220;42.716;23.306;2022-12-18T04:40:39;96265.81;;;4.10;100.00
20119;BME280;10220;42.716;23.306;2022-12-18T04:43:05;96269.19;;;4.10;100.00
20119;BME280;10220;42.716;23.306;2022-12-18T04:45:31;96244.78;;;3.97;100.00
20119;BME280;10220;42.716;23.306;2022-12-18T04:48:00;96284.81;;;4.07;100.00
20119;BME280;10220;42.716;23.306;2022-12-18T04:50:26;96286.19;;;4.02;100.00
20119;BME280;10220;42.716;23.306;2022-12-18T04:52:52;96238.59;;;3.90;100.00
20119;BME280;10220;42.716;23.306;2022-12-18T04:55:17;96305.88;;;4.02;100.00
20119;BME280;10220;42.716;23.306;2022-12-18T04:57:42;96291.03;;;4.14;100.00
20119;BME280;10220;42.716;23.306;2022-12-18T05:00:08;96260.31;;;3.86;100.00
20119;BME280;10220;42.716;23.306;2022-12-18T05:02:34;96307.09;;;4.07;100.00
20119;BME280;10220;42.716;23.306;2022-12-18T05:04:59;96287.94;;;4.11;100.00
20119;BME280;10220;42.716;23.306;2022-12-18T05:07:25;96306.41;;;4.05;100.00
20119;BME280;10220;42.716;23.306;2022-12-18T05:09:50;96277.16;;;3.89;100.00
20119;BME280;10220;42.716;23.306;2022-12-18T05:12:16;96304.81;;;4.04;100.00
20119;BME280;10220;42.716;23.306;2022-12-18T05:14:41;96316.13;;;4.02;100.00
20119;BME280;10220;42.716;23.306;2022-12-18T05:17:06;96314.63;;;4.18;100.00
20119;BME280;10220;42.716;23.306;2022-12-18T05:19:32;96277.16;;;3.89;100.00
20119;BME280;10220;42.716;23.306;2022-12-18T05:21:57;96331.09;;;3.97;100.00
20119;BME280;10220;42.716;23.306;2022-12-18T05:24:23;96332.59;;;3.90;100.00
20119;BME280;10220;42.716;23.306;2022-12-18T05:26:48;96347.03;;;4.09;100.00
20119;BME280;10220;42.716;23.306;2022-12-18T05:29:14;96333.25;;;3.92;100.00
20119;BME280;10220;42.716;23.306;2022-12-18T05:31:40;96337.97;;;3.87;100.00
20119;BME280;10220;42.716;23.306;2022-12-18T05:34:05;96307.63;;;3.73;100.00
20119;BME280;10220;42.716;23.306;2022-12-18T05:36:31;96360.78;;;4.08;100.00
20119;BME280;10220;42.716;23.306;2022-12-18T05:38:57;96364.81;;;4.11;100.00
20119;BME280;10220;42.716;23.306;2022-12-18T05:41:22;96366.44;;;4.03;100.00
20119;BME280;10220;42.716;23.306;2022-12-18T05:43:47;96327.34;;;3.82;100.00
20119;BME280;10220;42.716;23.306;2022-12-18T05:46:17;96369.41;;;3.98;100.00
20119;BME280;10220;42.716;23.306;2022-12-18T05:48:44;96371.69;;;3.92;100.00
20119;BME280;10220;42.716;23.306;2022-12-18T05:51:12;96373.59;;;3.99;100.00
20119;BME280;10220;42.716;23.306;2022-12-18T05:53:38;96371.16;;;3.98;100.00
20119;BME280;10220;42.716;23.306;2022-12-18T05:56:05;96370.19;;;3.99;100.00
20119;BME280;10220;42.716;23.306;2022-12-18T05:58:31;96383.84;;;3.99;100.00
20119;BME280;10220;42.716;23.306;2022-12-18T06:00:57;96388.81;;;4.01;100.00
20119;BME280;10220;42.716;23.306;2022-12-18T06:03:22;96396.09;;;3.96;100.00
20119;BME280;10220;42.716;23.306;2022-12-18T06:05:48;96401.06;;;3.88;100.00
20119;BME280;10220;42.716;23.306;2022-12-18T06:08:13;96388.03;;;4.00;100.00
20119;BME280;10220;42.716;23.306;2022-12-18T06:10:40;96377.44;;;3.65;100.00
20119;BME280;10220;42.716;23.306;2022-12-18T06:13:06;96395.81;;;3.80;100.00
20119;BME280;10220;42.716;23.306;2022-12-18T06:15:32;96392.03;;;3.84;100.00
20119;BME280;10220;42.716;23.306;2022-12-18T06:17:58;96382.69;;;3.64;100.00
20119;BME280;10220;42.716;23.306;2022-12-18T06:20:23;96399.84;;;3.82;100.00
20119;BME280;10220;42.716;23.306;2022-12-18T06:22:49;96408.75;;;3.88;100.00
20119;BME280;10220;42.716;23.306;2022-12-18T06:25:14;96407.28;;;3.95;100.00
20119;BME280;10220;42.716;23.306;2022-12-18T06:27:39;96396.88;;;3.77;100.00
20119;BME280;10220;42.716;23.306;2022-12-18T06:30:06;96398.50;;;3.88;100.00
20119;BME280;10220;42.716;23.306;2022-12-18T06:32:31;96421.44;;;3.89;100.00
20119;BME280;10220;42.716;23.306;2022-12-18T06:34:57;96413.31;;;3.84;100.00
20119;BME280;10220;42.716;23.306;2022-12-18T06:37:22;96419.44;;;3.93;100.00
20119;BME280;10220;42.716;23.306;2022-12-18T06:39:52;96379.22;;;3.74;100.00
20119;BME280;10220;42.716;23.306;2022-12-18T06:42:17;96433.53;;;3.78;100.00
20119;BME280;10220;42.716;23.306;2022-12-18T06:44:43;96419.81;;;3.88;100.00
20119;BME280;10220;42.716;23.306;2022-12-18T06:47:08;96429.38;;;3.77;100.00
20119;BME280;10220;42.716;23.306;2022-12-18T06:49:34;96426.44;;;3.91;100.00
20119;BME280;10220;42.716;23.306;2022-12-18T06:51:59;96424.38;;;3.75;100.00
20119;BME280;10220;42.716;23.306;2022-12-18T06:54:24;96442.56;;;3.72;100.00
20119;BME280;10220;42.716;23.306;2022-12-18T06:56:50;96443.91;;;3.76;100.00
20119;BME280;10220;42.716;23.306;2022-12-18T06:59:15;96438.66;;;3.78;100.00
20119;BME280;10220;42.716;23.306;2022-12-18T07:01:41;96445.69;;;3.76;100.00
20119;BME280;10220;42.716;23.306;2022-12-18T07:04:07;96444.88;;;3.75;100.00
20119;BME280;10220;42.716;23.306;2022-12-18T07:06:32;96433.22;;;3.62;100.00
20119;BME280;10220;42.716;23.306;2022-12-18T07:08:58;96405.72;;;3.54;100.00
20119;BME280;10220;42.716;23.306;2022-12-18T07:11:24;96423.75;;;3.53;100.00
20119;BME280;10220;42.716;23.306;2022-12-18T07:13:49;96393.91;;;3.33;100.00
20119;BME280;10220;42.716;23.306;2022-12-18T07:16:17;96454.28;;;3.65;100.00
20119;BME280;10220;42.716;23.306;2022-12-18T07:18:43;96447.94;;;3.60;100.00
20119;BME280;10220;42.716;23.306;2022-12-18T07:21:13;96462.13;;;3.83;100.00
20119;BME280;10220;42.716;23.306;2022-12-18T07:23:39;96446.59;;;3.65;100.00
20119;BME280;10220;42.716;23.306;2022-12-18T07:26:06;96454.94;;;3.67;100.00
20119;BME280;10220;42.716;23.306;2022-12-18T07:28:33;96450.84;;;3.55;100.00
20119;BME280;10220;42.716;23.306;2022-12-18T07:31:10;96458.84;;;3.62;100.00
20119;BME280;10220;42.716;23.306;2022-12-18T07:33:36;96474.72;;;3.56;100.00
20119;BME280;10220;42.716;23.306;2022-12-18T07:36:03;96467.19;;;3.54;100.00
20119;BME280;10220;42.716;23.306;2022-12-18T07:38:29;96463.34;;;3.49;100.00
20119;BME280;10220;42.716;23.306;2022-12-18T07:41:03;96487.91;;;3.51;100.00
20119;BME280;10220;42.716;23.306;2022-12-18T07:43:29;96492.06;;;3.43;100.00
20119;BME280;10220;42.716;23.306;2022-12-18T07:45:54;96485.59;;;3.48;100.00
20119;BME280;10220;42.716;23.306;2022-12-18T07:48:20;96469.03;;;3.52;100.00
20119;BME280;10220;42.716;23.306;2022-12-18T07:50:45;96490.91;;;3.56;100.00
20119;BME280;10220;42.716;23.306;2022-12-18T07:53:11;96427.97;;;3.34;100.00
20119;BME280;10220;42.716;23.306;2022-12-18T07:55:36;96490.34;;;3.53;100.00
20119;BME280;10220;42.716;23.306;2022-12-18T07:58:03;96491.28;;;3.52;100.00
20119;BME280;10220;42.716;23.306;2022-12-18T08:00:29;96496.59;;;3.60;100.00
20119;BME280;10220;42.716;23.306;2022-12-18T08:02:55;96477.34;;;3.45;100.00
20119;BME280;10220;42.716;23.306;2022-12-18T08:05:20;96506.00;;;3.59;100.00
20119;BME280;10220;42.716;23.306;2022-12-18T08:07:46;96503.09;;;3.73;100.00
20119;BME280;10220;42.716;23.306;2022-12-18T08:10:12;96498.63;;;3.66;100.00
20119;BME280;10220;42.716;23.306;2022-12-18T08:12:38;96496.19;;;3.64;100.00
20119;BME280;10220;42.716;23.306;2022-12-18T08:15:03;96504.25;;;3.60;100.00
20119;BME280;10220;42.716;23.306;2022-12-18T08:17:29;96498.38;;;3.69;100.00
20119;BME280;10220;42.716;23.306;2022-12-18T08:19:55;96517.09;;;3.69;100.00
20119;BME280;10220;42.716;23.306;2022-12-18T08:22:20;96524.66;;;3.71;100.00
20119;BME280;10220;42.716;23.306;2022-12-18T08:24:45;96528.44;;;3.76;100.00
20119;BME280;10220;42.716;23.306;2022-12-18T08:27:11;96501.44;;;3.63;100.00
20119;BME280;10220;42.716;23.306;2022-12-18T08:29:36;96538.06;;;3.84;100.00
20119;BME280;10220;42.716;23.306;2022-12-18T08:32:02;96480.19;;;3.42;100.00
20119;BME280;10220;42.716;23.306;2022-12-18T08:34:27;96526.63;;;3.88;100.00
20119;BME280;10220;42.716;23.306;2022-12-18T08:36:53;96504.31;;;3.49;100.00
20119;BME280;10220;42.716;23.306;2022-12-18T08:39:19;96530.03;;;3.68;100.00
20119;BME280;10220;42.716;23.306;2022-12-18T08:41:44;96548.16;;;3.76;100.00
20119;BME280;10220;42.716;23.306;2022-12-18T08:44:29;96534.53;;;3.75;100.00
20119;BME280;10220;42.716;23.306;2022-12-18T08:47:07;96530.81;;;3.59;100.00
20119;BME280;10220;42.716;23.306;2022-12-18T08:49:33;96555.25;;;3.72;100.00
20119;BME280;10220;42.716;23.306;2022-12-18T08:51:59;96552.16;;;3.69;100.00
20119;BME280;10220;42.716;23.306;2022-12-18T08:54:25;96544.66;;;3.77;100.00
20119;BME280;10220;42.716;23.306;2022-12-18T08:56:51;96547.75;;;3.80;100.00
20119;BME280;10220;42.716;23.306;2022-12-18T08:59:17;96512.56;;;3.52;100.00
20119;BME280;10220;42.716;23.306;2022-12-18T09:01:43;96529.41;;;3.75;100.00
20119;BME280;10220;42.716;23.306;2022-12-18T09:04:11;96546.69;;;3.83;100.00
20119;BME280;10220;42.716;23.306;2022-12-18T09:06:37;96554.59;;;4.00;100.00
20119;BME280;10220;42.716;23.306;2022-12-18T09:09:04;96510.69;;;3.84;100.00
20119;BME280;10220;42.716;23.306;2022-12-18T09:11:30;96539.63;;;4.05;100.00
20119;BME280;10220;42.716;23.306;2022-12-18T09:13:57;96543.09;;;3.95;100.00
20119;BME280;10220;42.716;23.306;2022-12-18T09:16:24;96544.25;;;4.11;100.00
20119;BME280;10220;42.716;23.306;2022-12-18T09:18:50;96561.44;;;4.29;100.00
20119;BME280;10220;42.716;23.306;2022-12-18T09:21:18;96539.53;;;4.16;100.00
20119;BME280;10220;42.716;23.306;2022-12-18T09:23:48;96499.94;;;3.90;100.00
20119;BME280;10220;42.716;23.306;2022-12-18T09:26:14;96548.81;;;4.07;100.00
20119;BME280;10220;42.716;23.306;2022-12-18T09:28:39;96554.19;;;4.05;100.00
20119;BME280;10220;42.716;23.306;2022-12-18T09:31:06;96550.88;;;4.13;100.00
20119;BME280;10220;42.716;23.306;2022-12-18T09:33:33;96526.13;;;3.94;100.00
20119;BME280;10220;42.716;23.306;2022-12-18T09:36:01;96489.03;;;3.58;100.00
20119;BME280;10220;42.716;23.306;2022-12-18T09:38:26;96562.28;;;4.00;100.00
20119;BME280;10220;42.716;23.306;2022-12-18T09:40:55;96563.22;;;3.99;100.00
20119;BME280;10220;42.716;23.306;2022-12-18T09:43:28;96566.09;;;4.06;100.00
20119;BME280;10220;42.716;23.306;2022-12-18T09:45:59;96546.69;;;4.22;100.00
20119;BME280;10220;42.716;23.306;2022-12-18T09:48:34;96550.16;;;4.11;100.00
20119;BME280;10220;42.716;23.306;2022-12-18T09:51:20;96544.25;;;4.11;100.00
20119;BME280;10220;42.716;23.306;2022-12-18T09:53:53;96556.44;;;4.28;100.00
20119;BME280;10220;42.716;23.306;2022-12-18T09:56:22;96517.19;;;4.27;100.00
20119;BME280;10220;42.716;23.306;2022-12-18T09:59:00;96561.88;;;4.44;100.00
20119;BME280;10220;42.716;23.306;2022-12-18T10:01:27;96533.78;;;4.33;100.00
20119;BME280;10220;42.716;23.306;2022-12-18T10:03:53;96510.78;;;4.12;100.00
20119;BME280;10220;42.716;23.306;2022-12-18T10:06:30;96537.03;;;4.35;100.00
20119;BME280;10220;42.716;23.306;2022-12-18T10:09:34;96540.19;;;4.57;100.00
20119;BME280;10220;42.716;23.306;2022-12-18T10:14:51;96542.72;;;4.48;100.00
20119;BME280;10220;42.716;23.306;2022-12-18T10:17:32;96550.00;;;4.43;100.00
20119;BME280;10220;42.716;23.306;2022-12-18T10:20:08;96557.16;;;4.39;100.00
20119;BME280;10220;42.716;23.306;2022-12-18T10:28:08;96565.72;;;4.68;100.00
20119;BME280;10220;42.716;23.306;2022-12-18T10:30:35;96554.91;;;4.64;100.00
20119;BME280;10220;42.716;23.306;2022-12-18T10:33:01;96507.31;;;4.32;100.00
20119;BME280;10220;42.716;23.306;2022-12-18T10:35:27;96516.00;;;4.41;100.00
20119;BME280;10220;42.716;23.306;2022-12-18T10:38:23;96542.34;;;4.80;100.00
20119;BME280;10220;42.716;23.306;2022-12-18T10:41:22;96491.19;;;4.51;100.00
20119;BME280;10220;42.716;23.306;2022-12-18T10:44:23;96546.16;;;4.86;100.00
20119;BME280;10220;42.716;23.306;2022-12-18T10:47:02;96547.25;;;4.83;100.00
20119;BME280;10220;42.716;23.306;2022-12-18T10:49:31;96544.28;;;5.07;100.00
20119;BME280;10220;42.716;23.306;2022-12-18T10:52:20;96542.66;;;5.06;100.00
20119;BME280;10220;42.716;23.306;2022-12-18T10:55:13;96542.75;;;4.85;100.00
20119;BME280;10220;42.716;23.306;2022-12-18T10:57:38;96547.38;;;4.82;100.00
20119;BME280;10220;42.716;23.306;2022-12-18T11:00:31;96538.47;;;4.86;100.00
20119;BME280;10220;42.716;23.306;2022-12-18T11:02:57;96535.47;;;5.00;100.00
20119;BME280;10220;42.716;23.306;2022-12-18T11:05:24;96539.66;;;5.10;100.00
20119;BME280;10220;42.716;23.306;2022-12-18T11:08:02;96562.78;;;4.91;100.00
20119;BME280;10220;42.716;23.306;2022-12-18T11:10:31;96550.47;;;4.85;100.00
20119;BME280;10220;42.716;23.306;2022-12-18T11:13:17;96535.59;;;4.61;100.00
20119;BME280;10220;42.716;23.306;2022-12-18T11:15:44;96545.06;;;4.79;100.00
20119;BME280;10220;42.716;23.306;2022-12-18T11:18:39;96543.47;;;4.87;100.00
20119;BME280;10220;42.716;23.306;2022-12-18T11:21:08;96538.47;;;4.95;100.00
20119;BME280;10220;42.716;23.306;2022-12-18T11:23:34;96536.56;;;4.69;100.00
20119;BME280;10220;42.716;23.306;2022-12-18T11:26:03;96565.06;;;4.75;100.00
20119;BME280;10220;42.716;23.306;2022-12-18T11:31:26;96567.25;;;4.99;100.00
20119;BME280;10220;42.716;23.306;2022-12-18T11:34:22;96559.28;;;5.02;100.00
20119;BME280;10220;42.716;23.306;2022-12-18T11:36:52;96550.09;;;4.90;100.00
20119;BME280;10220;42.716;23.306;2022-12-18T11:39:21;96550.50;;;5.04;100.00
20119;BME280;10220;42.716;23.306;2022-12-18T11:41:54;96549.66;;;4.85;100.00
20119;BME280;10220;42.716;23.306;2022-12-18T11:45:30;96551.72;;;5.00;100.00
20119;BME280;10220;42.716;23.306;2022-12-18T11:47:57;96549.78;;;5.02;100.00
20119;BME280;10220;42.716;23.306;2022-12-18T11:53:01;96512.63;;;4.59;100.00
20119;BME280;10220;42.716;23.306;2022-12-18T11:55:39;96559.13;;;4.94;100.00
20119;BME280;10220;42.716;23.306;2022-12-18T12:09:34;96549.78;;;5.02;100.00
20119;BME280;10220;42.716;23.306;2022-12-18T12:17:37;96542.38;;;4.99;100.00
20119;BME280;10220;42.716;23.306;2022-12-18T12:39:00;96565.19;;;5.02;100.00
20119;BME280;10220;42.716;23.306;2022-12-18T12:41:31;96571.44;;;5.19;100.00
20119;BME280;10220;42.716;23.306;2022-12-18T12:44:23;96551.00;;;4.98;100.00
20119;BME280;10220;42.716;23.306;2022-12-18T12:46:50;96551.56;;;5.02;100.00
20119;BME280;10220;42.716;23.306;2022-12-18T12:49:25;96556.03;;;5.09;100.00
20119;BME280;10220;42.716;23.306;2022-12-18T12:52:07;96560.75;;;5.04;100.00
20119;BME280;10220;42.716;23.306;2022-12-18T12:57:26;96559.94;;;5.04;100.00
20119;BME280;10220;42.716;23.306;2022-12-18T13:02:56;96567.78;;;4.83;100.00
20119;BME280;10220;42.716;23.306;2022-12-18T13:05:48;96567.50;;;4.96;100.00
20119;BME280;10220;42.716;23.306;2022-12-18T13:08:29;96570.75;;;4.88;100.00
20119;BME280;10220;42.716;23.306;2022-12-18T13:10:57;96562.09;;;4.89;100.00
20119;BME280;10220;42.716;23.306;2022-12-18T13:13:53;96592.50;;;5.03;100.00
20119;BME280;10220;42.716;23.306;2022-12-18T13:16:20;96547.34;;;4.63;100.00
20119;BME280;10220;42.716;23.306;2022-12-18T13:18:54;96597.22;;;4.89;100.00
20119;BME280;10220;42.716;23.306;2022-12-18T13:21:30;96603.56;;;4.75;100.00
20119;BME280;10220;42.716;23.306;2022-12-18T13:24:15;96600.63;;;4.99;100.00
20119;BME280;10220;42.716;23.306;2022-12-18T13:26:40;96610.34;;;4.95;100.00
20119;BME280;10220;42.716;23.306;2022-12-18T13:29:06;96591.69;;;5.03;100.00
20119;BME280;10220;42.716;23.306;2022-12-18T13:34:25;96595.22;;;4.92;100.00
20119;BME280;10220;42.716;23.306;2022-12-18T13:36:52;96612.75;;;5.06;100.00
20119;BME280;10220;42.716;23.306;2022-12-18T13:41:45;96613.84;;;4.94;100.00
20119;BME280;10220;42.716;23.306;2022-12-18T13:51:44;96618.31;;;4.92;100.00
20119;BME280;10220;42.716;23.306;2022-12-18T13:54:42;96622.88;;;4.79;100.00
20119;BME280;10220;42.716;23.306;2022-12-18T13:57:34;96618.66;;;4.69;100.00
20119;BME280;10220;42.716;23.306;2022-12-18T14:00:32;96622.03;;;4.69;100.00
20119;BME280;10220;42.716;23.306;2022-12-18T14:02:58;96625.69;;;4.76;100.00
20119;BME280;10220;42.716;23.306;2022-12-18T14:05:28;96626.09;;;4.72;100.00
20119;BME280;10220;42.716;23.306;2022-12-18T14:07:59;96637.84;;;4.74;100.00
20119;BME280;10220;42.716;23.306;2022-12-18T14:10:25;96647.03;;;4.67;100.00
20119;BME280;10220;42.716;23.306;2022-12-18T14:12:51;96639.19;;;4.78;100.00
20119;BME280;10220;42.716;23.306;2022-12-18T14:20:25;96618.25;;;4.73;100.00
20119;BME280;10220;42.716;23.306;2022-12-18T14:22:51;96624.31;;;4.72;100.00
20119;BME280;10220;42.716;23.306;2022-12-18T14:25:22;96618.25;;;4.64;100.00
20119;BME280;10220;42.716;23.306;2022-12-18T14:30:39;96596.81;;;4.35;100.00
20119;BME280;10220;42.716;23.306;2022-12-18T14:33:08;96646.47;;;4.64;100.00
20119;BME280;10220;42.716;23.306;2022-12-18T14:35:36;96606.53;;;4.32;100.00